sensor_id;sensor_type;location;lat;lon;timestamp;pressure;altitude;pressure_sealevel;temperature;humidity
14253;BME280;7210;51.502;10.722;2023-03-04T00:00:06;100174.22;;;1.78;100.00
14253;BME280;7210;51.502;10.722;2023-03-04T00:02:36;100164.16;;;1.83;100.00
14253;BME280;7210;51.502;10.722;2023-03-04T00:05:03;100158.63;;;1.86;100.00
14253;BME280;7210;51.502;10.722;2023-03-04T00:07:31;100148.34;;;1.85;100.00
14253;BME280;7210;51.502;10.722;2023-03-04T00:09:58;100145.09;;;1.91;100.00
14253;BME280;7210;51.502;10.722;2023-03-04T00:12:25;100145.59;;;1.94;100.00
14253;BME280;7210;51.502;10.722;2023-03-04T00:14:52;100144.16;;;2.00;100.00
14253;BME280;7210;51.502;10.722;2023-03-04T00:17:21;100138.13;;;1.99;100.00
14253;BME280;7210;51.502;10.722;2023-03-04T00:19:49;100141.75;;;2.06;100.00
14253;BME280;7210;51.502;10.722;2023-03-04T00:22:16;100124.44;;;2.05;100.00
14253;BME280;7210;51.502;10.722;2023-03-04T00:24:43;100120.88;;;2.06;100.00
14253;BME280;7210;51.502;10.722;2023-03-04T00:27:14;100119.72;;;2.09;100.00
14253;BME280;7210;51.502;10.722;2023-03-04T00:29:41;100126.13;;;2.14;100.00
14253;BME280;7210;51.502;10.722;2023-03-04T00:32:08;100107.19;;;2.12;100.00
14253;BME280;7210;51.502;10.722;2023-03-04T00:34:37;100100.34;;;2.11;100.00
14253;BME280;7210;51.502;10.722;2023-03-04T00:37:05;100093.84;;;2.07;100.00
14253;BME280;7210;51.502;10.722;2023-03-04T00:39:32;100095.75;;;2.05;100.00
14253;BME280;7210;51.502;10.722;2023-03-04T00:42:00;100089.59;;;2.06;100.00
14253;BME280;7210;51.502;10.722;2023-03-04T00:44:27;100083.06;;;2.02;100.00
14253;BME280;7210;51.502;10.722;2023-03-04T00:46:54;100068.72;;;1.98;100.00
14253;BME280;7210;51.502;10.722;2023-03-04T00:49:21;100070.16;;;1.93;100.00
14253;BME280;7210;51.502;10.722;2023-03-04T00:51:51;100054.69;;;1.83;100.00
14253;BME280;7210;51.502;10.722;2023-03-04T00:54:18;100039.53;;;1.71;100.00
14253;BME280;7210;51.502;10.722;2023-03-04T00:56:45;100040.66;;;1.68;100.00
14253;BME280;7210;51.502;10.722;2023-03-04T00:59:13;100038.03;;;1.60;100.00
14253;BME280;7210;51.502;10.722;2023-03-04T01:01:40;100031.81;;;1.53;100.00
14253;BME280;7210;51.502;10.722;2023-03-04T01:04:07;100028.84;;;1.48;100.00
14253;BME280;7210;51.502;10.722;2023-03-04T01:06:34;100025.25;;;1.41;100.00
14253;BME280;7210;51.502;10.722;2023-03-04T01:09:03;100036.31;;;1.43;100.00
14253;BME280;7210;51.502;10.722;2023-03-04T01:11:30;100034.69;;;1.42;100.00
14253;BME280;7210;51.502;10.722;2023-03-04T01:14:06;100031.44;;;1.40;100.00
14253;BME280;7210;51.502;10.722;2023-03-04T01:16:34;100031.44;;;1.40;100.00
14253;BME280;7210;51.502;10.722;2023-03-04T01:19:01;100028.81;;;1.32;100.00
14253;BME280;7210;51.502;10.722;2023-03-04T01:21:29;100031.03;;;1.27;100.00
14253;BME280;7210;51.502;10.722;2023-03-04T01:23:56;100024.88;;;1.20;100.00
14253;BME280;7210;51.502;10.722;2023-03-04T01:26:25;100023.53;;;1.16;100.00
14253;BME280;7210;51.502;10.722;2023-03-04T01:28:52;100028.41;;;1.19;100.00
14253;BME280;7210;51.502;10.722;2023-03-04T01:31:19;100031.38;;;1.24;100.00
14253;BME280;7210;51.502;10.722;2023-03-04T01:33:46;100026.31;;;1.23;100.00
14253;BME280;7210;51.502;10.722;2023-03-04T01:36:13;100020.59;;;1.19;100.00
14253;BME280;7210;51.502;10.722;2023-03-04T01:38:41;100019.94;;;1.17;100.00
14253;BME280;7210;51.502;10.722;2023-03-04T01:41:09;100018.00;;;1.19;100.00
14253;BME280;7210;51.502;10.722;2023-03-04T01:43:39;100004.16;;;1.11;100.00
14253;BME280;7210;51.502;10.722;2023-03-04T01:46:06;100016.06;;;1.21;100.00
14253;BME280;7210;51.502;10.722;2023-03-04T01:48:36;100021.59;;;1.26;100.00
14253;BME280;7210;51.502;10.722;2023-03-04T01:51:10;100014.44;;;1.20;100.00
14253;BME280;7210;51.502;10.722;2023-03-04T01:53:38;100013.97;;;1.25;100.00
14253;BME280;7210;51.502;10.722;2023-03-04T01:56:24;100015.44;;;1.27;100.00
14253;BME280;7210;51.502;10.722;2023-03-04T01:59:12;100006.31;;;1.23;100.00
14253;BME280;7210;51.502;10.722;2023-03-04T02:01:41;100018.72;;;1.29;100.00
14253;BME280;7210;51.502;10.722;2023-03-04T02:04:11;100021.97;;;1.31;100.00
14253;BME280;7210;51.502;10.722;2023-03-04T02:06:40;100011.22;;;1.34;100.00
14253;BME280;7210;51.502;10.722;2023-03-04T02:09:09;100015.19;;;1.46;100.00
14253;BME280;7210;51.502;10.722;2023-03-04T02:11:38;100006.06;;;1.50;100.00
14253;BME280;7210;51.502;10.722;2023-03-04T02:14:08;100010.00;;;1.62;100.00
14253;BME280;7210;51.502;10.722;2023-03-04T02:16:36;100014.59;;;1.68;100.00
14253;BME280;7210;51.502;10.722;2023-03-04T02:19:06;100013.13;;;1.74;100.00
14253;BME280;7210;51.502;10.722;2023-03-04T02:21:38;100001.25;;;1.79;100.00
14253;BME280;7210;51.502;10.722;2023-03-04T02:24:16;99987.22;;;1.80;100.00
14253;BME280;7210;51.502;10.722;2023-03-04T02:26:46;99983.84;;;1.88;100.00
14253;BME280;7210;51.502;10.722;2023-03-04T02:29:15;99970.81;;;1.88;100.00
14253;BME280;7210;51.502;10.722;2023-03-04T02:31:46;99961.50;;;1.85;100.00
14253;BME280;7210;51.502;10.722;2023-03-04T02:34:17;99964.75;;;1.95;100.00
14253;BME280;7210;51.502;10.722;2023-03-04T02:36:51;99961.84;;;1.98;100.00
14253;BME280;7210;51.502;10.722;2023-03-04T02:39:27;99964.59;;;2.05;100.00
14253;BME280;7210;51.502;10.722;2023-03-04T02:41:58;99963.78;;;2.12;100.00
14253;BME280;7210;51.502;10.722;2023-03-04T02:44:29;99947.84;;;2.07;100.00
14253;BME280;7210;51.502;10.722;2023-03-04T02:47:08;99946.34;;;2.13;100.00
14253;BME280;7210;51.502;10.722;2023-03-04T02:49:38;99932.19;;;2.07;100.00
14253;BME280;7210;51.502;10.722;2023-03-04T02:52:09;99938.03;;;2.09;100.00
14253;BME280;7210;51.502;10.722;2023-03-04T02:54:39;99921.75;;;2.07;100.00
14253;BME280;7210;51.502;10.722;2023-03-04T02:57:11;99918.81;;;2.10;100.00
14253;BME280;7210;51.502;10.722;2023-03-04T02:59:42;99905.13;;;2.08;100.00
14253;BME280;7210;51.502;10.722;2023-03-04T03:02:14;99905.78;;;2.10;100.00
14253;BME280;7210;51.502;10.722;2023-03-04T03:04:41;99892.75;;;2.02;100.00
14253;BME280;7210;51.502;10.722;2023-03-04T03:07:12;99896.66;;;2.06;100.00
14253;BME280;7210;51.502;10.722;2023-03-04T03:09:40;99892.75;;;2.10;100.00
14253;BME280;7210;51.502;10.722;2023-03-04T03:15:00;99890.78;;;2.12;100.00
14253;BME280;7210;51.502;10.722;2023-03-04T03:17:27;99887.66;;;2.17;100.00
14253;BME280;7210;51.502;10.722;2023-03-04T03:19:55;99877.09;;;2.10;100.00
14253;BME280;7210;51.502;10.722;2023-03-04T03:22:22;99878.41;;;2.14;100.00
14253;BME280;7210;51.502;10.722;2023-03-04T03:24:50;99879.38;;;2.21;100.00
14253;BME280;7210;51.502;10.722;2023-03-04T03:27:17;99869.41;;;2.17;100.00
14253;BME280;7210;51.502;10.722;2023-03-04T03:29:44;99870.25;;;2.09;100.00
14253;BME280;7210;51.502;10.722;2023-03-04T03:32:13;99865.69;;;2.11;100.00
14253;BME280;7210;51.502;10.722;2023-03-04T03:34:41;99857.88;;;2.03;100.00
14253;BME280;7210;51.502;10.722;2023-03-04T03:37:08;99868.97;;;2.13;100.00
14253;BME280;7210;51.502;10.722;2023-03-04T03:39:35;99865.03;;;2.09;100.00
14253;BME280;7210;51.502;10.722;2023-03-04T03:42:03;99855.91;;;2.05;100.00
14253;BME280;7210;51.502;10.722;2023-03-04T03:44:30;99867.16;;;2.06;100.00
14253;BME280;7210;51.502;10.722;2023-03-04T03:47:01;99860.19;;;2.06;100.00
14253;BME280;7210;51.502;10.722;2023-03-04T03:49:30;99860.47;;;2.03;100.00
14253;BME280;7210;51.502;10.722;2023-03-04T03:51:57;99862.09;;;2.04;100.00
14253;BME280;7210;51.502;10.722;2023-03-04T03:54:24;99884.41;;;2.23;100.00
14253;BME280;7210;51.502;10.722;2023-03-04T03:56:51;99888.09;;;2.36;100.00
14253;BME280;7210;51.502;10.722;2023-03-04T03:59:18;99888.28;;;2.43;100.00
14253;BME280;7210;51.502;10.722;2023-03-04T04:01:45;99869.84;;;2.44;100.00
14253;BME280;7210;51.502;10.722;2023-03-04T04:04:13;99857.47;;;2.38;100.00
14253;BME280;7210;51.502;10.722;2023-03-04T04:06:42;99856.16;;;2.42;100.00
14253;BME280;7210;51.502;10.722;2023-03-04T04:09:12;99871.13;;;2.48;100.00
14253;BME280;7210;51.502;10.722;2023-03-04T04:11:39;99857.72;;;2.51;100.00
14253;BME280;7210;51.502;10.722;2023-03-04T04:14:07;99857.53;;;2.61;100.00
14253;BME280;7210;51.502;10.722;2023-03-04T04:16:35;99858.34;;;2.69;100.00
14253;BME280;7210;51.502;10.722;2023-03-04T04:19:02;99861.91;;;2.76;100.00
14253;BME280;7210;51.502;10.722;2023-03-04T04:21:29;99852.25;;;2.77;100.00
14253;BME280;7210;51.502;10.722;2023-03-04T04:23:57;99847.03;;;2.77;100.00
14253;BME280;7210;51.502;10.722;2023-03-04T04:26:25;99853.88;;;2.78;100.00
14253;BME280;7210;51.502;10.722;2023-03-04T04:28:52;99847.66;;;2.79;100.00
14253;BME280;7210;51.502;10.722;2023-03-04T04:31:19;99851.56;;;2.83;100.00
14253;BME280;7210;51.502;10.722;2023-03-04T04:33:46;99850.75;;;2.82;100.00
14253;BME280;7210;51.502;10.722;2023-03-04T04:36:14;99857.28;;;2.86;100.00
14253;BME280;7210;51.502;10.722;2023-03-04T04:38:42;99854.97;;;2.91;100.00
14253;BME280;7210;51.502;10.722;2023-03-04T04:41:20;99850.91;;;2.89;100.00
14253;BME280;7210;51.502;10.722;2023-03-04T04:43:48;99856.59;;;2.92;100.00
14253;BME280;7210;51.502;10.722;2023-03-04T04:46:16;99853.63;;;2.95;100.00
14253;BME280;7210;51.502;10.722;2023-03-04T04:48:43;99846.63;;;2.96;100.00
14253;BME280;7210;51.502;10.722;2023-03-04T04:51:11;99859.47;;;2.97;100.00
14253;BME280;7210;51.502;10.722;2023-03-04T04:53:38;99849.03;;;2.97;100.00
14253;BME280;7210;51.502;10.722;2023-03-04T04:56:11;99853.94;;;3.00;100.00
14253;BME280;7210;51.502;10.722;2023-03-04T04:58:40;99850.66;;;2.98;100.00
14253;BME280;7210;51.502;10.722;2023-03-04T05:01:08;99856.72;;;2.99;100.00
14253;BME280;7210;51.502;10.722;2023-03-04T05:03:37;99855.25;;;2.96;100.00
14253;BME280;7210;51.502;10.722;2023-03-04T05:06:07;99867.97;;;2.99;100.00
14253;BME280;7210;51.502;10.722;2023-03-04T05:08:35;99859.16;;;3.00;100.00
14253;BME280;7210;51.502;10.722;2023-03-04T05:11:05;99862.56;;;3.01;100.00
14253;BME280;7210;51.502;10.722;2023-03-04T05:13:36;99863.38;;;3.01;100.00
14253;BME280;7210;51.502;10.722;2023-03-04T05:16:07;99865.66;;;3.04;100.00
14253;BME280;7210;51.502;10.722;2023-03-04T05:18:34;99867.94;;;3.07;100.00
14253;BME280;7210;51.502;10.722;2023-03-04T05:21:03;99863.34;;;3.09;100.00
14253;BME280;7210;51.502;10.722;2023-03-04T05:23:33;99866.59;;;3.11;100.00
14253;BME280;7210;51.502;10.722;2023-03-04T05:26:01;99864.97;;;3.10;100.00
14253;BME280;7210;51.502;10.722;2023-03-04T05:28:29;99869.38;;;3.10;100.00
14253;BME280;7210;51.502;10.722;2023-03-04T05:30:56;99862.97;;;3.12;100.00
14253;BME280;7210;51.502;10.722;2023-03-04T05:33:26;99856.13;;;3.11;100.00
14253;BME280;7210;51.502;10.722;2023-03-04T05:35:53;99857.75;;;3.12;100.00
14253;BME280;7210;51.502;10.722;2023-03-04T05:38:21;99854.53;;;3.10;100.00
14253;BME280;7210;51.502;10.722;2023-03-04T05:40:49;99865.59;;;3.12;100.00
14253;BME280;7210;51.502;10.722;2023-03-04T05:43:21;99866.25;;;3.14;100.00
14253;BME280;7210;51.502;10.722;2023-03-04T05:45:48;99866.25;;;3.14;100.00
14253;BME280;7210;51.502;10.722;2023-03-04T05:48:16;99869.84;;;3.13;100.00
14253;BME280;7210;51.502;10.722;2023-03-04T05:50:44;99866.25;;;3.14;100.00
14253;BME280;7210;51.502;10.722;2023-03-04T05:53:12;99874.72;;;3.16;100.00
14253;BME280;7210;51.502;10.722;2023-03-04T05:55:46;99860.69;;;3.17;100.00
14253;BME280;7210;51.502;10.722;2023-03-04T05:58:13;99872.38;;;3.21;100.00
14253;BME280;7210;51.502;10.722;2023-03-04T06:00:40;99874.03;;;3.22;100.00
14253;BME280;7210;51.502;10.722;2023-03-04T06:03:13;99881.69;;;3.24;100.00
14253;BME280;7210;51.502;10.722;2023-03-04T06:05:58;99890.97;;;3.26;100.00
14253;BME280;7210;51.502;10.722;2023-03-04T06:08:26;99885.75;;;3.26;100.00
14253;BME280;7210;51.502;10.722;2023-03-04T06:10:57;99891.44;;;3.30;100.00
14253;BME280;7210;51.502;10.722;2023-03-04T06:13:27;99911.19;;;3.32;100.00
14253;BME280;7210;51.502;10.722;2023-03-04T06:15:57;99903.19;;;3.34;100.00
14253;BME280;7210;51.502;10.722;2023-03-04T06:18:26;99909.84;;;3.36;100.00
14253;BME280;7210;51.502;10.722;2023-03-04T06:20:58;99920.97;;;3.38;100.00
14253;BME280;7210;51.502;10.722;2023-03-04T06:23:26;99914.75;;;3.39;100.00
14253;BME280;7210;51.502;10.722;2023-03-04T06:25:56;99917.84;;;3.43;100.00
14253;BME280;7210;51.502;10.722;2023-03-04T06:28:24;99924.50;;;3.45;100.00
14253;BME280;7210;51.502;10.722;2023-03-04T06:30:52;99917.63;;;3.44;100.00
14253;BME280;7210;51.502;10.722;2023-03-04T06:33:20;99928.75;;;3.46;100.00
14253;BME280;7210;51.502;10.722;2023-03-04T06:35:47;99922.53;;;3.47;100.00
14253;BME280;7210;51.502;10.722;2023-03-04T06:38:16;99938.84;;;3.49;100.00
14253;BME280;7210;51.502;10.722;2023-03-04T06:40:43;99937.69;;;3.52;100.00
14253;BME280;7210;51.502;10.722;2023-03-04T06:43:10;99936.53;;;3.54;100.00
14253;BME280;7210;51.502;10.722;2023-03-04T06:45:38;99952.03;;;3.55;100.00
14253;BME280;7210;51.502;10.722;2023-03-04T06:48:05;99944.66;;;3.59;100.00
14253;BME280;7210;51.502;10.722;2023-03-04T06:50:33;99937.81;;;3.58;100.00
14253;BME280;7210;51.502;10.722;2023-03-04T06:53:00;99944.31;;;3.62;100.00
14253;BME280;7210;51.502;10.722;2023-03-04T06:55:28;99945.13;;;3.62;100.00
14253;BME280;7210;51.502;10.722;2023-03-04T06:57:56;99955.41;;;3.64;100.00
14253;BME280;7210;51.502;10.722;2023-03-04T07:00:24;99954.88;;;3.68;100.00
14253;BME280;7210;51.502;10.722;2023-03-04T07:02:51;99957.34;;;3.70;100.00
14253;BME280;7210;51.502;10.722;2023-03-04T07:05:18;99970.69;;;3.75;100.00
14253;BME280;7210;51.502;10.722;2023-03-04T07:07:45;99974.44;;;3.80;100.00
14253;BME280;7210;51.502;10.722;2023-03-04T07:10:14;99973.59;;;3.80;100.00
14253;BME280;7210;51.502;10.722;2023-03-04T07:12:42;99975.22;;;3.81;100.00
14253;BME280;7210;51.502;10.722;2023-03-04T07:15:10;99984.69;;;3.82;100.00
14253;BME280;7210;51.502;10.722;2023-03-04T07:17:42;99984.06;;;3.80;100.00
14253;BME280;7210;51.502;10.722;2023-03-04T07:20:10;99985.06;;;3.79;100.00
14253;BME280;7210;51.502;10.722;2023-03-04T07:22:38;99990.91;;;3.81;100.00
14253;BME280;7210;51.502;10.722;2023-03-04T07:25:07;99996.28;;;3.87;100.00
14253;BME280;7210;51.502;10.722;2023-03-04T07:27:39;100007.19;;;3.91;100.00
14253;BME280;7210;51.502;10.722;2023-03-04T07:30:10;100006.03;;;3.93;100.00
14253;BME280;7210;51.502;10.722;2023-03-04T07:32:37;100012.03;;;4.02;100.00
14253;BME280;7210;51.502;10.722;2023-03-04T07:35:06;100015.28;;;4.04;100.00
14253;BME280;7210;51.502;10.722;2023-03-04T07:37:33;100013.94;;;4.08;100.00
14253;BME280;7210;51.502;10.722;2023-03-04T07:40:00;100023.53;;;4.15;100.00
14253;BME280;7210;51.502;10.722;2023-03-04T07:42:27;100023.00;;;4.20;100.00
14253;BME280;7210;51.502;10.722;2023-03-04T07:45:03;100013.00;;;4.23;100.00
14253;BME280;7210;51.502;10.722;2023-03-04T07:47:31;100023.06;;;4.34;100.00
14253;BME280;7210;51.502;10.722;2023-03-04T07:49:58;100014.03;;;4.37;100.00
14253;BME280;7210;51.502;10.722;2023-03-04T07:52:26;100000.31;;;4.35;100.00
14253;BME280;7210;51.502;10.722;2023-03-04T07:54:54;99992.75;;;4.40;100.00
14253;BME280;7210;51.502;10.722;2023-03-04T07:57:22;99996.00;;;4.42;100.00
14253;BME280;7210;51.502;10.722;2023-03-04T07:59:49;99992.38;;;4.43;100.00
14253;BME280;7210;51.502;10.722;2023-03-04T08:02:16;99990.06;;;4.48;100.00
14253;BME280;7210;51.502;10.722;2023-03-04T08:04:45;99996.22;;;4.55;100.00
14253;BME280;7210;51.502;10.722;2023-03-04T08:07:12;100002.53;;;4.60;100.00
14253;BME280;7210;51.502;10.722;2023-03-04T08:09:39;99998.38;;;4.66;100.00
14253;BME280;7210;51.502;10.722;2023-03-04T08:12:06;99984.28;;;4.67;100.00
14253;BME280;7210;51.502;10.722;2023-03-04T08:14:34;99983.66;;;4.65;100.00
14253;BME280;7210;51.502;10.722;2023-03-04T08:17:03;99979.41;;;4.64;100.00
14253;BME280;7210;51.502;10.722;2023-03-04T08:19:34;99981.03;;;4.65;100.00
14253;BME280;7210;51.502;10.722;2023-03-04T08:22:09;99987.56;;;4.69;100.00
14253;BME280;7210;51.502;10.722;2023-03-04T08:24:42;99977.09;;;4.69;100.00
14253;BME280;7210;51.502;10.722;2023-03-04T08:27:09;99979.88;;;4.67;100.00
14253;BME280;7210;51.502;10.722;2023-03-04T08:29:36;99982.66;;;4.66;100.00
14253;BME280;7210;51.502;10.722;2023-03-04T08:32:04;99989.53;;;4.67;100.00
14253;BME280;7210;51.502;10.722;2023-03-04T08:34:31;100005.22;;;4.67;100.00
14253;BME280;7210;51.502;10.722;2023-03-04T08:36:58;100006.84;;;4.68;100.00
14253;BME280;7210;51.502;10.722;2023-03-04T08:39:27;100010.13;;;4.70;100.00
14253;BME280;7210;51.502;10.722;2023-03-04T08:41:54;100010.94;;;4.70;100.00
14253;BME280;7210;51.502;10.722;2023-03-04T08:44:21;100018.63;;;4.72;100.00
14253;BME280;7210;51.502;10.722;2023-03-04T08:46:48;100014.16;;;4.72;100.00
14253;BME280;7210;51.502;10.722;2023-03-04T08:49:16;100023.16;;;4.78;100.00
14253;BME280;7210;51.502;10.722;2023-03-04T08:51:49;100022.41;;;4.84;100.00
14253;BME280;7210;51.502;10.722;2023-03-04T08:54:16;100028.94;;;4.88;100.00
14253;BME280;7210;51.502;10.722;2023-03-04T08:56:45;100009.97;;;4.86;100.00
14253;BME280;7210;51.502;10.722;2023-03-04T08:59:12;100013.84;;;4.90;100.00
14253;BME280;7210;51.502;10.722;2023-03-04T09:01:41;100009.88;;;4.94;100.00
14253;BME280;7210;51.502;10.722;2023-03-04T09:04:10;100012.28;;;4.95;100.00
14253;BME280;7210;51.502;10.722;2023-03-04T09:06:40;100016.66;;;5.03;100.00
14253;BME280;7210;51.502;10.722;2023-03-04T09:09:12;100012.19;;;5.03;100.00
14253;BME280;7210;51.502;10.722;2023-03-04T09:11:39;100005.63;;;5.07;100.00
14253;BME280;7210;51.502;10.722;2023-03-04T09:14:08;99994.16;;;5.08;100.00
14253;BME280;7210;51.502;10.722;2023-03-04T09:16:35;100002.19;;;5.07;100.00
14253;BME280;7210;51.502;10.722;2023-03-04T09:19:02;99993.34;;;5.08;100.00
14253;BME280;7210;51.502;10.722;2023-03-04T09:21:29;100003.53;;;5.17;100.00
14253;BME280;7210;51.502;10.722;2023-03-04T09:23:57;99999.19;;;5.24;100.00
14253;BME280;7210;51.502;10.722;2023-03-04T09:26:28;99991.16;;;5.26;100.00
14253;BME280;7210;51.502;10.722;2023-03-04T09:28:58;99985.00;;;5.19;100.00
14253;BME280;7210;51.502;10.722;2023-03-04T09:31:28;99979.78;;;5.19;100.00
14253;BME280;7210;51.502;10.722;2023-03-04T09:33:57;99978.50;;;5.15;100.00
14253;BME280;7210;51.502;10.722;2023-03-04T09:36:25;99985.00;;;5.19;100.00
14253;BME280;7210;51.502;10.722;2023-03-04T09:38:52;99983.38;;;5.18;100.00
14253;BME280;7210;51.502;10.722;2023-03-04T09:41:32;99983.22;;;5.19;100.00
14253;BME280;7210;51.502;10.722;2023-03-04T09:44:11;99989.88;;;5.22;100.00
14253;BME280;7210;51.502;10.722;2023-03-04T09:46:44;99963.97;;;5.12;100.00
14253;BME280;7210;51.502;10.722;2023-03-04T09:49:13;99999.19;;;5.39;100.00
14253;BME280;7210;51.502;10.722;2023-03-04T09:51:51;99989.78;;;5.44;99.86
14253;BME280;7210;51.502;10.722;2023-03-04T09:54:48;99987.22;;;5.51;99.73
14253;BME280;7210;51.502;10.722;2023-03-04T09:57:27;99994.41;;;5.63;99.58
14253;BME280;7210;51.502;10.722;2023-03-04T10:00:07;99986.81;;;5.68;98.99
14253;BME280;7210;51.502;10.722;2023-03-04T10:03:15;99965.66;;;5.70;98.57
14253;BME280;7210;51.502;10.722;2023-03-04T10:05:50;99975.28;;;5.84;98.33
14253;BME280;7210;51.502;10.722;2023-03-04T10:08:33;99960.81;;;5.88;98.04
14253;BME280;7210;51.502;10.722;2023-03-04T10:11:14;99943.19;;;5.82;97.75
14253;BME280;7210;51.502;10.722;2023-03-04T10:13:59;99952.75;;;5.89;97.64
14253;BME280;7210;51.502;10.722;2023-03-04T10:16:36;99944.31;;;5.94;97.07
14253;BME280;7210;51.502;10.722;2023-03-04T10:19:27;99945.13;;;5.94;97.00
14253;BME280;7210;51.502;10.722;2023-03-04T10:21:56;99944.94;;;5.96;97.11
14253;BME280;7210;51.502;10.722;2023-03-04T10:24:27;99950.44;;;6.01;96.74
14253;BME280;7210;51.502;10.722;2023-03-04T10:27:01;99957.53;;;6.07;97.20
14253;BME280;7210;51.502;10.722;2023-03-04T10:29:32;99946.03;;;6.08;96.73
14253;BME280;7210;51.502;10.722;2023-03-04T10:31:59;99955.44;;;6.17;96.96
14253;BME280;7210;51.502;10.722;2023-03-04T10:34:37;99950.22;;;6.23;96.38
14253;BME280;7210;51.502;10.722;2023-03-04T10:37:06;99938.69;;;6.18;95.86
14253;BME280;7210;51.502;10.722;2023-03-04T10:39:37;99936.66;;;6.20;96.07
14253;BME280;7210;51.502;10.722;2023-03-04T10:42:22;99936.28;;;6.23;95.89
14253;BME280;7210;51.502;10.722;2023-03-04T10:44:56;99934.88;;;6.20;95.53
14253;BME280;7210;51.502;10.722;2023-03-04T10:47:25;99922.94;;;6.18;95.58
14253;BME280;7210;51.502;10.722;2023-03-04T10:49:58;99911.31;;;6.06;95.50
14253;BME280;7210;51.502;10.722;2023-03-04T10:52:31;99927.63;;;6.01;95.80
14253;BME280;7210;51.502;10.722;2023-03-04T10:55:03;99930.44;;;6.00;95.62
14253;BME280;7210;51.502;10.722;2023-03-04T10:57:37;99920.06;;;5.92;95.93
14253;BME280;7210;51.502;10.722;2023-03-04T11:00:26;99929.94;;;5.90;95.97
14253;BME280;7210;51.502;10.722;2023-03-04T11:03:29;99942.06;;;5.91;95.81
14253;BME280;7210;51.502;10.722;2023-03-04T11:06:13;99933.41;;;5.90;95.81
14253;BME280;7210;51.502;10.722;2023-03-04T11:08:42;99928.94;;;5.91;95.79
14253;BME280;7210;51.502;10.722;2023-03-04T11:11:29;99932.56;;;5.90;95.68
14253;BME280;7210;51.502;10.722;2023-03-04T11:14:09;99934.28;;;5.97;95.64
14253;BME280;7210;51.502;10.722;2023-03-04T11:16:39;99935.88;;;5.98;95.57
14253;BME280;7210;51.502;10.722;2023-03-04T11:19:15;99936.53;;;6.07;95.62
14253;BME280;7210;51.502;10.722;2023-03-04T11:21:45;99934.00;;;6.13;95.08
14253;BME280;7210;51.502;10.722;2023-03-04T11:24:18;99919.25;;;6.12;94.87
14253;BME280;7210;51.502;10.722;2023-03-04T11:26:54;99918.88;;;6.15;94.75
14253;BME280;7210;51.502;10.722;2023-03-04T11:29:29;99931.03;;;6.23;94.69
14253;BME280;7210;51.502;10.722;2023-03-04T11:32:05;99908.38;;;6.15;93.90
14253;BME280;7210;51.502;10.722;2023-03-04T11:34:41;99896.00;;;6.09;94.23
14253;BME280;7210;51.502;10.722;2023-03-04T11:37:18;99911.91;;;6.08;94.37
14253;BME280;7210;51.502;10.722;2023-03-04T11:39:54;99907.19;;;5.97;94.44
14253;BME280;7210;51.502;10.722;2023-03-04T11:42:34;99907.63;;;6.00;94.48
14253;BME280;7210;51.502;10.722;2023-03-04T11:45:12;99928.19;;;5.97;94.49
14253;BME280;7210;51.502;10.722;2023-03-04T11:48:00;99931.06;;;6.02;94.92
14253;BME280;7210;51.502;10.722;2023-03-04T11:50:42;99918.19;;;6.07;94.34
14253;BME280;7210;51.502;10.722;2023-03-04T11:53:51;99913.56;;;6.09;94.26
14253;BME280;7210;51.502;10.722;2023-03-04T11:56:31;99902.81;;;6.04;93.84
14253;BME280;7210;51.502;10.722;2023-03-04T12:02:20;99901.44;;;6.08;93.79
14253;BME280;7210;51.502;10.722;2023-03-04T12:05:12;99895.56;;;6.06;93.54
14253;BME280;7210;51.502;10.722;2023-03-04T12:08:02;99894.56;;;6.07;93.44
14253;BME280;7210;51.502;10.722;2023-03-04T12:10:43;99921.53;;;6.22;93.53
14253;BME280;7210;51.502;10.722;2023-03-04T12:13:50;99896.97;;;6.29;92.91
14253;BME280;7210;51.502;10.722;2023-03-04T12:16:41;99885.47;;;6.37;91.87
14253;BME280;7210;51.502;10.722;2023-03-04T12:19:26;99854.44;;;6.47;90.91
14253;BME280;7210;51.502;10.722;2023-03-04T12:22:19;99830.88;;;6.60;90.06
14253;BME280;7210;51.502;10.722;2023-03-04T12:25:39;99806.28;;;6.74;88.95
14253;BME280;7210;51.502;10.722;2023-03-04T12:28:38;99791.78;;;6.84;87.77
14253;BME280;7210;51.502;10.722;2023-03-04T12:31:32;99755.41;;;6.88;86.26
14253;BME280;7210;51.502;10.722;2023-03-04T12:34:29;99706.03;;;6.77;85.89
14253;BME280;7210;51.502;10.722;2023-03-04T12:37:22;99703.22;;;6.72;85.75
14253;BME280;7210;51.502;10.722;2023-03-04T12:40:14;99718.75;;;6.67;85.98
14253;BME280;7210;51.502;10.722;2023-03-04T12:43:05;99717.75;;;6.61;85.83
14253;BME280;7210;51.502;10.722;2023-03-04T12:45:43;99723.00;;;6.61;86.07
14253;BME280;7210;51.502;10.722;2023-03-04T12:48:26;99735.53;;;6.66;85.75
14253;BME280;7210;51.502;10.722;2023-03-04T12:51:24;99773.97;;;6.86;86.51
14253;BME280;7210;51.502;10.722;2023-03-04T12:54:24;99788.19;;;7.05;86.29
14253;BME280;7210;51.502;10.722;2023-03-04T12:57:01;99747.94;;;6.98;85.59
14253;BME280;7210;51.502;10.722;2023-03-04T12:59:36;99708.88;;;6.88;85.47
14253;BME280;7210;51.502;10.722;2023-03-04T13:02:51;99715.75;;;6.83;85.36
14253;BME280;7210;51.502;10.722;2023-03-04T13:05:38;99726.28;;;6.83;85.76
14253;BME280;7210;51.502;10.722;2023-03-04T13:08:24;99757.84;;;6.96;85.93
14253;BME280;7210;51.502;10.722;2023-03-04T13:11:51;99746.88;;;6.86;85.75
14253;BME280;7210;51.502;10.722;2023-03-04T13:14:28;99754.53;;;6.68;86.48
14253;BME280;7210;51.502;10.722;2023-03-04T13:16:59;99798.56;;;6.66;87.47
14253;BME280;7210;51.502;10.722;2023-03-04T13:19:49;99819.59;;;6.66;88.26
14253;BME280;7210;51.502;10.722;2023-03-04T13:22:31;99857.22;;;6.73;88.58
14253;BME280;7210;51.502;10.722;2023-03-04T13:25:29;99889.19;;;6.89;88.91
14253;BME280;7210;51.502;10.722;2023-03-04T13:28:20;99886.22;;;6.99;88.76
14253;BME280;7210;51.502;10.722;2023-03-04T13:31:17;99902.22;;;7.10;88.77
14253;BME280;7210;51.502;10.722;2023-03-04T13:33:54;99855.28;;;7.01;87.90